Waddell, Arizona
Current Conditions -  °F | °C
As of 6:58 AM on Sunday 23 Nov 2014 (Local Time) from KLUF Reporting Station
Clear Clear  
Wind Chill: 41°   Ceiling: Unl
Heat Index: 45°   Visibility: 10mi
Dew Point: 30°   Wind: 6mph
Humidity: 57%   Direction: 20°NNE
Pressure: 29.95"   Gusts: NA
Location:  33.57°N, 112.43°W
Report Text: KLUF 231358Z AUTO 02005KT 10SM CLR 07/M01 A2995 RMK AO2 SLP140
Loading
Personal Weather Stations






























Interactive Weather Map New forecast layout! Learn more

10-Day Weather Forecast

Advertisements
Track Severe Weather on mobile